createdAt,value
2022-09-22T00:01:18.107Z,100189.75
2022-09-22T00:03:50.848Z,100191.22
2022-09-22T00:06:29.399Z,100184.28
2022-09-22T00:09:00.646Z,100187.75
2022-09-22T00:11:40.006Z,100176.16
2022-09-22T00:14:11.606Z,100187.09
2022-09-22T00:16:47.861Z,100186.28
2022-09-22T00:19:22.568Z,100182.63
2022-09-22T00:21:49.852Z,100187.94
2022-09-22T00:24:18.670Z,100183.78
2022-09-22T00:26:45.526Z,100187.25
2022-09-22T00:29:12.729Z,100185.81
2022-09-22T00:31:41.722Z,100184.78
2022-09-22T00:34:14.275Z,100184.78
2022-09-22T00:36:41.361Z,100175.72
2022-09-22T00:39:08.198Z,100179.63
2022-09-22T00:41:40.494Z,100186.63
2022-09-22T00:44:31.612Z,100189.28
2022-09-22T00:47:04.079Z,100191.12
2022-09-22T00:49:34.137Z,100198.44
2022-09-22T00:52:01.409Z,100202.94
2022-09-22T00:54:28.266Z,100186.19
2022-09-22T00:57:08.675Z,100189.81
2022-09-22T00:59:36.095Z,100194.97
2022-09-22T01:02:03.482Z,100192.47
2022-09-22T01:04:30.158Z,100190.81
2022-09-22T01:06:58.447Z,100193.66
2022-09-22T01:09:26.407Z,100198.97
2022-09-22T01:11:53.012Z,100181.91
2022-09-22T01:14:48.823Z,100176.41
2022-09-22T01:17:34.492Z,100186.34
2022-09-22T01:20:16.088Z,100190.63
2022-09-22T01:22:58.646Z,100184.69
2022-09-22T01:25:28.359Z,100189.19
2022-09-22T01:28:19.891Z,100187.97
2022-09-22T01:31:06.477Z,100190.00
2022-09-22T01:33:46.903Z,100184.03
2022-09-22T01:36:29.202Z,100187.50
2022-09-22T01:39:21.857Z,100188.69
2022-09-22T01:41:51.855Z,100178.41
2022-09-22T01:44:27.277Z,100184.69
2022-09-22T01:47:05.426Z,100182.00
2022-09-22T01:49:35.245Z,100188.31
2022-09-22T01:52:27.223Z,100188.31
2022-09-22T01:55:16.601Z,100180.53
2022-09-22T01:57:56.462Z,100173.09
2022-09-22T02:00:26.727Z,100187.03
2022-09-22T02:03:01.102Z,100182.09
2022-09-22T02:05:42.084Z,100175.81
2022-09-22T02:08:15.117Z,100187.75
2022-09-22T02:10:44.386Z,100178.28
2022-09-22T02:13:11.515Z,100181.31
2022-09-22T02:15:57.101Z,100185.13
2022-09-22T02:18:29.619Z,100178.16
2022-09-22T02:20:57.436Z,100179.53
2022-09-22T02:23:24.805Z,100184.16
2022-09-22T02:25:53.467Z,100165.63
2022-09-22T02:28:22.378Z,100176.37
2022-09-22T02:31:17.491Z,100176.88
2022-09-22T02:33:40.554Z,100182.19
2022-09-22T02:36:38.644Z,100172.25
2022-09-22T02:39:11.387Z,100188.50
2022-09-22T02:42:10.220Z,100171.41
2022-09-22T02:44:47.966Z,100172.87
2022-09-22T02:47:43.452Z,100170.59
2022-09-22T02:50:13.819Z,100168.75
2022-09-22T02:52:40.987Z,100173.25
2022-09-22T02:55:09.541Z,100162.97
2022-09-22T02:57:36.219Z,100153.03
2022-09-22T03:00:05.389Z,100167.28
2022-09-22T03:02:32.351Z,100155.69
2022-09-22T03:04:59.022Z,100165.97
2022-09-22T03:07:26.441Z,100162.28
2022-09-22T03:09:53.071Z,100155.37
2022-09-22T03:12:19.696Z,100164.66
2022-09-22T03:14:46.575Z,100165.66
2022-09-22T03:17:13.187Z,100153.91
2022-09-22T03:19:39.827Z,100167.03
2022-09-22T03:22:06.891Z,100167.38
2022-09-22T03:24:33.595Z,100183.78
2022-09-22T03:27:00.207Z,100191.56
2022-09-22T03:29:27.082Z,100195.22
2022-09-22T03:31:53.740Z,100180.31
2022-09-22T03:34:20.343Z,100188.91
2022-09-22T03:36:47.432Z,100187.06
2022-09-22T03:39:14.008Z,100197.72
2022-09-22T03:41:41.120Z,100182.63
2022-09-22T03:44:08.067Z,100197.88
2022-09-22T03:46:34.754Z,100181.34
2022-09-22T03:49:03.228Z,100204.56
2022-09-22T03:51:30.962Z,100204.91
2022-09-22T03:53:57.611Z,100195.28
2022-09-22T03:56:24.327Z,100203.59
2022-09-22T03:58:51.266Z,100206.41
2022-09-22T04:01:18.081Z,100211.56
2022-09-22T04:03:45.020Z,100201.62
2022-09-22T04:06:11.699Z,100206.25
2022-09-22T04:08:38.755Z,100204.22
2022-09-22T04:11:06.245Z,100205.91
2022-09-22T04:13:32.990Z,100194.13
2022-09-22T04:15:59.751Z,100213.87
2022-09-22T04:18:26.815Z,100212.38
2022-09-22T04:20:58.152Z,100190.66
2022-09-22T04:23:26.014Z,100214.38
2022-09-22T04:25:53.560Z,100216.69
2022-09-22T04:28:20.226Z,100208.56
2022-09-22T04:30:47.669Z,100217.84
2022-09-22T04:33:14.811Z,100218.66
2022-09-22T04:35:42.007Z,100222.12
2022-09-22T04:38:10.170Z,100214.84
2022-09-22T04:40:37.652Z,100216.47
2022-09-22T04:43:04.376Z,100214.50
2022-09-22T04:45:33.139Z,100218.97
2022-09-22T04:48:02.152Z,100222.59
2022-09-22T04:50:28.921Z,100219.13
2022-09-22T04:52:57.244Z,100216.75
2022-09-22T04:55:25.200Z,100225.06
2022-09-22T04:57:55.483Z,100231.66
2022-09-22T05:00:26.210Z,100223.34
2022-09-22T05:02:53.795Z,100229.31
2022-09-22T05:05:21.206Z,100228.97
2022-09-22T05:07:54.151Z,100224.47
2022-09-22T05:10:25.153Z,100227.63
2022-09-22T05:12:53.528Z,100229.63
2022-09-22T05:15:21.782Z,100222.00
2022-09-22T05:17:50.724Z,100234.41
2022-09-22T05:20:18.302Z,100240.56
2022-09-22T05:22:45.160Z,100239.72
2022-09-22T05:25:17.826Z,100244.22
2022-09-22T05:27:46.677Z,100234.28
2022-09-22T05:30:14.036Z,100260.16
2022-09-22T05:32:48.659Z,100247.53
2022-09-22T05:35:18.212Z,100240.91
2022-09-22T05:37:47.197Z,100257.44
2022-09-22T05:40:15.236Z,100257.09
2022-09-22T05:42:47.334Z,100255.47
2022-09-22T05:45:14.968Z,100258.78
2022-09-22T05:47:42.405Z,100250.78
2022-09-22T05:50:12.231Z,100249.12
2022-09-22T05:52:38.956Z,100246.78
2022-09-22T05:55:07.134Z,100239.34
2022-09-22T05:57:33.839Z,100237.97
2022-09-22T06:00:00.614Z,100246.56
2022-09-22T06:02:27.701Z,100243.72
2022-09-22T06:04:54.683Z,100252.47
2022-09-22T06:07:22.576Z,100250.31
2022-09-22T06:09:50.008Z,100251.97
2022-09-22T06:12:17.779Z,100252.78
2022-09-22T06:14:44.465Z,100251.47
2022-09-22T06:17:12.479Z,100251.97
2022-09-22T06:19:40.772Z,100245.47
2022-09-22T06:22:08.753Z,100244.50
2022-09-22T06:24:35.454Z,100255.75
2022-09-22T06:27:02.454Z,100252.94
2022-09-22T06:29:29.185Z,100251.41
2022-09-22T06:31:55.886Z,100257.34
2022-09-22T06:34:23.931Z,100251.84
2022-09-22T06:36:50.652Z,100240.25
2022-09-22T06:39:17.318Z,100239.91
2022-09-22T06:41:44.945Z,100264.44
2022-09-22T06:44:12.710Z,100247.16
2022-09-22T06:46:39.453Z,100257.78
2022-09-22T06:49:06.347Z,100252.91
2022-09-22T06:51:35.596Z,100259.72
2022-09-22T06:54:04.303Z,100265.50
2022-09-22T06:56:37.965Z,100264.13
2022-09-22T06:59:11.189Z,100256.44
2022-09-22T07:01:40.082Z,100263.91
2022-09-22T07:04:07.703Z,100269.31
2022-09-22T07:06:35.859Z,100269.06
2022-09-22T07:09:04.847Z,100261.63
2022-09-22T07:11:32.761Z,100264.50
2022-09-22T07:14:03.128Z,100257.69
2022-09-22T07:16:30.334Z,100266.06
2022-09-22T07:18:58.510Z,100267.00
2022-09-22T07:21:32.923Z,100267.06
2022-09-22T07:23:59.996Z,100272.50
2022-09-22T07:26:30.950Z,100268.19
2022-09-22T07:29:00.007Z,100274.25
2022-09-22T07:31:29.699Z,100276.78
2022-09-22T07:34:00.175Z,100261.81
2022-09-22T07:36:30.047Z,100275.66
2022-09-22T07:39:03.280Z,100276.41
2022-09-22T07:41:32.144Z,100280.78
2022-09-22T07:44:19.569Z,100277.22
2022-09-22T07:46:47.077Z,100281.16
2022-09-22T07:49:19.421Z,100270.97
2022-09-22T07:51:46.485Z,100272.47
2022-09-22T07:54:13.142Z,100262.31
2022-09-22T07:56:44.243Z,100259.09
2022-09-22T07:59:14.060Z,100255.84
2022-09-22T08:01:47.687Z,100258.13
2022-09-22T08:04:22.736Z,100246.97
2022-09-22T08:06:53.550Z,100255.06
2022-09-22T08:09:20.702Z,100257.34
2022-09-22T08:11:48.841Z,100252.62
2022-09-22T08:14:17.451Z,100253.72
2022-09-22T08:16:45.923Z,100247.59
2022-09-22T08:19:14.079Z,100250.50
2022-09-22T08:21:48.822Z,100256.31
2022-09-22T08:24:22.457Z,100241.28
2022-09-22T08:26:51.448Z,100258.25
2022-09-22T08:29:18.620Z,100251.69
2022-09-22T08:31:47.455Z,100245.66
2022-09-22T08:34:16.665Z,100251.69
2022-09-22T08:36:48.820Z,100243.00
2022-09-22T08:39:16.235Z,100253.34
2022-09-22T08:42:18.873Z,100250.78
2022-09-22T08:44:49.242Z,100245.66
2022-09-22T08:47:40.809Z,100237.84
2022-09-22T08:50:41.321Z,100250.47
2022-09-22T08:53:12.136Z,100252.94
2022-09-22T08:55:43.178Z,100263.19
2022-09-22T08:58:32.259Z,100258.66
2022-09-22T09:01:14.985Z,100247.97
2022-09-22T09:03:55.049Z,100254.00
2022-09-22T09:06:52.992Z,100253.59
2022-09-22T09:09:41.485Z,100257.31
2022-09-22T09:12:47.450Z,100246.12
2022-09-22T09:15:29.412Z,100243.47
2022-09-22T09:18:01.208Z,100253.50
2022-09-22T09:20:40.525Z,100253.69
2022-09-22T09:23:19.346Z,100243.78
2022-09-22T09:25:55.200Z,100247.91
2022-09-22T09:28:32.037Z,100240.28
2022-09-22T09:31:16.703Z,100236.34
2022-09-22T09:33:46.824Z,100240.69
2022-09-22T09:36:17.653Z,100238.97
2022-09-22T09:38:49.639Z,100239.53
2022-09-22T09:41:34.231Z,100256.41
2022-09-22T09:44:03.763Z,100257.81
2022-09-22T09:46:43.276Z,100251.97
2022-09-22T09:49:21.128Z,100255.44
2022-09-22T09:51:52.525Z,100266.50
2022-09-22T09:54:20.483Z,100258.88
2022-09-22T09:57:05.579Z,100265.03
2022-09-22T09:59:52.590Z,100254.34
2022-09-22T10:02:25.360Z,100254.53
2022-09-22T10:05:05.780Z,100270.81
2022-09-22T10:07:47.916Z,100269.12
2022-09-22T10:10:30.064Z,100280.44
2022-09-22T10:13:06.021Z,100274.84
2022-09-22T10:15:35.874Z,100278.72
2022-09-22T10:18:04.042Z,100264.66
2022-09-22T10:20:33.984Z,100272.47
2022-09-22T10:23:21.748Z,100282.41
2022-09-22T10:25:50.591Z,100272.53
2022-09-22T10:28:21.963Z,100274.75
2022-09-22T10:31:00.456Z,100263.19
2022-09-22T10:33:27.411Z,100278.72
2022-09-22T10:36:06.449Z,100275.03
2022-09-22T10:41:17.999Z,100282.00
2022-09-22T10:44:34.980Z,100276.25
2022-09-22T10:47:32.290Z,100283.59
2022-09-22T10:50:22.512Z,100279.69
2022-09-22T10:53:12.588Z,100267.66
2022-09-22T10:55:55.899Z,100268.47
2022-09-22T10:58:34.734Z,100277.19
2022-09-22T11:01:20.595Z,100277.19
2022-09-22T11:04:06.738Z,100277.81
2022-09-22T11:07:07.430Z,100264.84
2022-09-22T11:09:59.621Z,100263.28
2022-09-22T11:12:32.491Z,100271.03
2022-09-22T11:15:18.040Z,100258.97
2022-09-22T11:18:13.900Z,100267.50
2022-09-22T11:20:47.318Z,100257.59
2022-09-22T11:23:17.287Z,100260.25
2022-09-22T11:26:01.887Z,100252.16
2022-09-22T11:29:07.545Z,100246.78
2022-09-22T11:31:48.556Z,100262.44
2022-09-22T11:34:27.825Z,100265.47
2022-09-22T11:37:25.598Z,100256.81
2022-09-22T11:39:58.718Z,100254.53
2022-09-22T11:42:43.291Z,100261.72
2022-09-22T11:45:20.703Z,100261.31
2022-09-22T11:48:25.951Z,100247.94
2022-09-22T11:50:58.995Z,100241.97
2022-09-22T11:53:44.155Z,100250.09
2022-09-22T11:56:33.374Z,100253.63
2022-09-22T11:59:13.690Z,100249.38
2022-09-22T12:01:41.805Z,100242.56
2022-09-22T12:04:21.922Z,100239.91
2022-09-22T12:06:52.899Z,100250.00
2022-09-22T12:09:43.860Z,100247.53
2022-09-22T12:12:17.210Z,100252.03
2022-09-22T12:14:48.090Z,100258.97
2022-09-22T12:17:40.930Z,100257.09
2022-09-22T12:20:28.928Z,100256.63
2022-09-22T12:23:19.720Z,100255.81
2022-09-22T12:26:01.037Z,100237.31
2022-09-22T12:28:30.506Z,100246.63
2022-09-22T12:31:06.716Z,100237.16
2022-09-22T12:33:36.191Z,100245.28
2022-09-22T12:36:05.077Z,100249.84
2022-09-22T12:38:32.292Z,100250.91
2022-09-22T12:41:02.996Z,100249.75
2022-09-22T12:43:32.673Z,100260.53
2022-09-22T12:46:04.764Z,100252.97
2022-09-22T12:48:37.195Z,100249.94
2022-09-22T12:51:26.413Z,100256.75
2022-09-22T12:54:22.252Z,100258.81
2022-09-22T12:57:08.487Z,100251.63
2022-09-22T12:59:35.652Z,100251.84
2022-09-22T13:02:11.223Z,100249.94
2022-09-22T13:04:38.618Z,100253.25
2022-09-22T13:07:35.709Z,100253.19
2022-09-22T13:10:23.903Z,100243.34
2022-09-22T13:13:12.184Z,100247.84
2022-09-22T13:15:51.172Z,100246.03
2022-09-22T13:18:27.639Z,100245.81
2022-09-22T13:20:54.572Z,100240.69
2022-09-22T13:23:21.586Z,100243.75
2022-09-22T13:25:51.641Z,100244.75
2022-09-22T13:28:21.451Z,100245.81
2022-09-22T13:31:05.949Z,100242.75
2022-09-22T13:33:35.341Z,100245.03
2022-09-22T13:36:04.712Z,100246.03
2022-09-22T13:38:36.269Z,100239.69
2022-09-22T13:41:05.275Z,100250.78
2022-09-22T13:43:37.407Z,100252.03
2022-09-22T13:46:05.887Z,100243.38
2022-09-22T13:48:36.828Z,100246.03
2022-09-22T13:51:09.250Z,100249.53
2022-09-22T13:53:37.512Z,100238.00
2022-09-22T13:56:04.852Z,100237.41
2022-09-22T13:58:40.702Z,100234.72
2022-09-22T14:01:23.682Z,100243.38
2022-09-22T14:03:52.127Z,100236.75
2022-09-22T14:06:22.146Z,100234.72
2022-09-22T14:08:50.672Z,100236.97
2022-09-22T14:11:21.749Z,100232.59
2022-09-22T14:13:54.702Z,100246.22
2022-09-22T14:16:49.802Z,100248.62
2022-09-22T14:19:23.878Z,100239.78
2022-09-22T14:21:58.078Z,100240.53
2022-09-22T14:24:26.535Z,100235.78
2022-09-22T14:27:01.471Z,100234.75
2022-09-22T14:29:33.140Z,100239.63
2022-09-22T14:32:12.691Z,100236.53
2022-09-22T14:34:41.097Z,100243.56
2022-09-22T14:37:24.905Z,100242.09
2022-09-22T14:39:53.714Z,100227.25
2022-09-22T14:42:27.541Z,100227.47
2022-09-22T14:45:06.289Z,100215.69
2022-09-22T14:47:39.337Z,100235.47
2022-09-22T14:50:18.925Z,100230.31
2022-09-22T14:53:19.232Z,100238.53
2022-09-22T14:55:53.170Z,100230.72
2022-09-22T14:58:27.541Z,100232.56
2022-09-22T15:01:17.192Z,100232.75
2022-09-22T15:03:53.075Z,100227.81
2022-09-22T15:06:19.769Z,100230.87
2022-09-22T15:08:54.863Z,100230.22
2022-09-22T15:11:48.962Z,100226.06
2022-09-22T15:14:33.977Z,100246.00
2022-09-22T15:17:20.603Z,100242.88
2022-09-22T15:19:53.419Z,100239.78
2022-09-22T15:22:20.173Z,100241.00
2022-09-22T15:24:47.068Z,100224.31
2022-09-22T15:27:17.727Z,100242.62
2022-09-22T15:29:45.644Z,100248.34
2022-09-22T15:32:13.225Z,100249.72
2022-09-22T15:34:44.786Z,100246.59
2022-09-22T15:37:18.449Z,100246.97
2022-09-22T15:39:45.273Z,100247.19
2022-09-22T15:42:12.420Z,100232.06
2022-09-22T15:44:39.179Z,100233.03
2022-09-22T15:47:10.726Z,100246.19
2022-09-22T15:49:37.628Z,100250.22
2022-09-22T15:52:04.863Z,100253.91
2022-09-22T15:54:31.674Z,100242.88
2022-09-22T15:56:59.893Z,100256.88
2022-09-22T15:59:32.574Z,100259.91
2022-09-22T16:02:00.588Z,100258.06
2022-09-22T16:04:33.674Z,100264.78
2022-09-22T16:07:08.379Z,100272.22
2022-09-22T16:09:35.505Z,100269.38
2022-09-22T16:12:03.303Z,100271.22
2022-09-22T16:14:29.950Z,100269.38
2022-09-22T16:16:56.837Z,100271.03
2022-09-22T16:19:23.586Z,100276.16
2022-09-22T16:21:52.839Z,100278.03
2022-09-22T16:24:22.387Z,100280.53
2022-09-22T16:26:49.387Z,100277.69
2022-09-22T16:29:16.567Z,100267.81
2022-09-22T16:31:43.495Z,100267.81
2022-09-22T16:34:10.717Z,100270.28
2022-09-22T16:36:37.521Z,100270.97
2022-09-22T16:39:05.491Z,100267.34
2022-09-22T16:41:34.375Z,100275.25
2022-09-22T16:44:02.176Z,100288.78
2022-09-22T16:46:30.652Z,100273.69
2022-09-22T16:49:00.614Z,100272.34
2022-09-22T16:51:28.071Z,100270.84
2022-09-22T16:53:55.123Z,100259.81
2022-09-22T16:56:24.735Z,100270.97
2022-09-22T16:58:52.050Z,100270.97
2022-09-22T17:01:20.189Z,100266.00
2022-09-22T17:03:49.443Z,100260.00
2022-09-22T17:06:19.302Z,100265.81
2022-09-22T17:08:46.484Z,100255.91
2022-09-22T17:11:14.373Z,100265.81
2022-09-22T17:13:43.423Z,100267.63
2022-09-22T17:16:30.271Z,100260.47
2022-09-22T17:18:59.909Z,100267.25
2022-09-22T17:21:30.158Z,100256.72
2022-09-22T17:24:02.430Z,100266.81
2022-09-22T17:26:32.875Z,100270.50
2022-09-22T17:29:00.324Z,100277.50
2022-09-22T17:31:31.157Z,100278.50
2022-09-22T17:33:58.566Z,100277.06
2022-09-22T17:36:26.613Z,100274.56
2022-09-22T17:38:55.806Z,100277.44
2022-09-22T17:41:25.509Z,100282.09
2022-09-22T17:43:57.639Z,100283.94
2022-09-22T17:46:26.294Z,100286.62
2022-09-22T17:49:12.208Z,100276.88
2022-09-22T17:52:03.087Z,100285.34
2022-09-22T17:54:49.652Z,100291.66
2022-09-22T17:57:25.340Z,100286.53
2022-09-22T17:59:52.324Z,100295.56
2022-09-22T18:02:20.567Z,100278.56
2022-09-22T18:04:48.055Z,100292.78
2022-09-22T18:07:17.879Z,100273.63
2022-09-22T18:09:47.573Z,100293.16
2022-09-22T18:12:20.062Z,100295.19
2022-09-22T18:14:52.152Z,100293.53
2022-09-22T18:17:22.518Z,100288.56
2022-09-22T18:19:49.420Z,100298.25
2022-09-22T18:22:21.061Z,100283.34
2022-09-22T18:24:49.610Z,100294.28
2022-09-22T18:27:19.570Z,100300.91
2022-09-22T18:29:50.013Z,100299.62
2022-09-22T18:32:19.700Z,100290.12
2022-09-22T18:34:46.755Z,100286.66
2022-09-22T18:37:15.647Z,100287.66
2022-09-22T18:39:45.537Z,100291.16
2022-09-22T18:42:13.662Z,100262.97
2022-09-22T18:44:41.487Z,100261.28
2022-09-22T18:47:13.097Z,100279.41
2022-09-22T18:49:40.785Z,100277.91
2022-09-22T18:52:08.013Z,100273.16
2022-09-22T18:54:35.358Z,100275.19
2022-09-22T18:57:06.548Z,100264.41
2022-09-22T18:59:33.362Z,100268.28
2022-09-22T19:02:00.676Z,100272.97
2022-09-22T19:04:27.490Z,100261.59
2022-09-22T19:07:14.323Z,100265.81
2022-09-22T19:09:42.143Z,100278.56
2022-09-22T19:12:09.991Z,100281.41
2022-09-22T19:14:39.274Z,100282.59
2022-09-22T19:17:10.938Z,100285.63
2022-09-22T19:19:42.255Z,100286.81
2022-09-22T19:22:12.764Z,100278.19
2022-09-22T19:24:40.340Z,100269.44
2022-09-22T19:27:09.202Z,100279.56
2022-09-22T19:29:36.434Z,100276.25
2022-09-22T19:32:04.631Z,100277.25
2022-09-22T19:34:31.425Z,100277.44
2022-09-22T19:36:58.933Z,100267.25
2022-09-22T19:39:26.642Z,100262.09
2022-09-22T19:41:54.875Z,100260.59
2022-09-22T19:44:23.333Z,100270.72
2022-09-22T19:46:50.425Z,100267.41
2022-09-22T19:49:17.348Z,100266.31
2022-09-22T19:51:44.357Z,100277.59
2022-09-22T19:54:11.646Z,100270.63
2022-09-22T19:56:38.277Z,100266.84
2022-09-22T19:59:09.098Z,100274.84
2022-09-22T20:01:43.084Z,100278.13
2022-09-22T20:04:14.200Z,100279.78
2022-09-22T20:06:41.197Z,100288.78
2022-09-22T20:09:08.007Z,100283.81
2022-09-22T20:11:39.057Z,100285.47
2022-09-22T20:14:22.901Z,100293.09
2022-09-22T20:16:55.115Z,100280.87
2022-09-22T20:19:22.923Z,100279.88
2022-09-22T20:21:51.511Z,100289.62
2022-09-22T20:24:21.428Z,100293.66
2022-09-22T20:26:48.352Z,100304.28
2022-09-22T20:29:16.536Z,100297.31
2022-09-22T20:31:43.728Z,100303.47
2022-09-22T20:34:15.134Z,100298.16
2022-09-22T20:36:43.404Z,100299.59
2022-09-22T20:39:13.622Z,100290.16
2022-09-22T20:41:41.788Z,100280.50
2022-09-22T20:44:14.191Z,100291.94
2022-09-22T20:46:42.421Z,100294.41
2022-09-22T20:49:13.842Z,100289.09
2022-09-22T20:51:43.401Z,100277.22
2022-09-22T20:54:10.602Z,100277.22
2022-09-22T20:56:41.969Z,100279.69
2022-09-22T20:59:09.658Z,100275.22
2022-09-22T21:01:36.972Z,100282.19
2022-09-22T21:04:03.957Z,100276.03
2022-09-22T21:06:31.113Z,100283.03
2022-09-22T21:09:17.326Z,100274.19
2022-09-22T21:11:44.196Z,100271.37
2022-09-22T21:14:11.980Z,100275.69
2022-09-22T21:16:39.532Z,100270.34
2022-09-22T21:19:07.541Z,100263.41
2022-09-22T21:21:38.710Z,100268.34
2022-09-22T21:24:05.770Z,100261.06
2022-09-22T21:26:33.243Z,100256.59
2022-09-22T21:29:00.822Z,100261.06
2022-09-22T21:31:28.129Z,100265.69
2022-09-22T21:33:55.145Z,100265.03
2022-09-22T21:36:24.117Z,100257.22
2022-09-22T21:38:56.570Z,100264.37
2022-09-22T21:41:27.337Z,100263.72
2022-09-22T21:43:55.145Z,100265.56
2022-09-22T21:46:25.067Z,100267.41
2022-09-22T21:49:03.678Z,100267.41
2022-09-22T21:51:36.311Z,100270.91
2022-09-22T21:54:05.119Z,100261.25
2022-09-22T21:56:33.692Z,100259.12
2022-09-22T21:59:01.800Z,100268.06
2022-09-22T22:01:32.045Z,100269.06
2022-09-22T22:04:00.644Z,100262.47
2022-09-22T22:06:30.064Z,100262.72
2022-09-22T22:09:06.545Z,100265.38
2022-09-22T22:11:39.215Z,100250.13
2022-09-22T22:14:08.632Z,100263.53
2022-09-22T22:16:44.378Z,100265.38
2022-09-22T22:19:14.448Z,100252.16
2022-09-22T22:21:43.079Z,100256.59
2022-09-22T22:24:14.641Z,100263.53
2022-09-22T22:26:42.397Z,100260.87
2022-09-22T22:29:12.121Z,100261.72
2022-09-22T22:31:39.678Z,100269.53
2022-09-22T22:34:11.913Z,100270.34
2022-09-22T22:36:38.977Z,100264.03
2022-09-22T22:39:06.109Z,100266.31
2022-09-22T22:41:33.025Z,100263.03
2022-09-22T22:44:01.813Z,100246.12
2022-09-22T22:46:29.854Z,100241.78
2022-09-22T22:48:57.579Z,100258.69
2022-09-22T22:51:24.920Z,100253.56
2022-09-22T22:53:55.595Z,100257.69
2022-09-22T22:56:25.132Z,100254.84
2022-09-22T22:58:53.252Z,100253.00
2022-09-22T23:01:22.507Z,100248.69
2022-09-22T23:03:57.739Z,100241.72
2022-09-22T23:06:26.942Z,100244.37
2022-09-22T23:08:54.437Z,100252.19
2022-09-22T23:11:40.230Z,100233.63
2022-09-22T23:14:11.281Z,100235.38
2022-09-22T23:16:40.782Z,100241.34
2022-09-22T23:19:10.606Z,100244.84
2022-09-22T23:21:37.299Z,100239.31
2022-09-22T23:24:05.298Z,100227.56
2022-09-22T23:26:32.565Z,100229.50
2022-09-22T23:28:59.527Z,100228.69
2022-09-22T23:31:26.344Z,100226.66
2022-09-22T23:33:54.074Z,100224.84
2022-09-22T23:36:24.131Z,100229.50
2022-09-22T23:38:55.612Z,100226.66
2022-09-22T23:41:22.904Z,100227.31
2022-09-22T23:43:49.976Z,100225.47
2022-09-22T23:46:16.743Z,100214.00
2022-09-22T23:48:43.737Z,100213.69
2022-09-22T23:51:10.399Z,100218.28
2022-09-22T23:53:37.666Z,100217.28
2022-09-22T23:56:06.491Z,100222.63
2022-09-22T23:58:33.916Z,100218.47
